sensor_id;sensor_type;location;lat;lon;timestamp;temperature;humidity
13808;DHT22;40769;51.512;5.494;2023-11-21T00:01:59;14.40;99.90
13808;DHT22;40769;51.512;5.494;2023-11-21T00:04:25;14.40;99.90
13808;DHT22;40769;51.512;5.494;2023-11-21T00:06:51;14.40;99.90
13808;DHT22;40769;51.512;5.494;2023-11-21T00:09:16;14.30;99.90
13808;DHT22;40769;51.512;5.494;2023-11-21T00:11:43;14.30;99.90
13808;DHT22;40769;51.512;5.494;2023-11-21T00:14:11;14.20;99.90
13808;DHT22;40769;51.512;5.494;2023-11-21T00:16:36;14.20;99.90
13808;DHT22;40769;51.512;5.494;2023-11-21T00:19:02;14.10;99.90
13808;DHT22;40769;51.512;5.494;2023-11-21T00:21:27;14.10;99.90
13808;DHT22;40769;51.512;5.494;2023-11-21T00:23:53;14.10;99.90
13808;DHT22;40769;51.512;5.494;2023-11-21T00:26:19;14.00;99.90
13808;DHT22;40769;51.512;5.494;2023-11-21T00:28:44;13.90;99.90
13808;DHT22;40769;51.512;5.494;2023-11-21T00:31:11;13.90;99.90
13808;DHT22;40769;51.512;5.494;2023-11-21T00:33:36;13.80;99.90
13808;DHT22;40769;51.512;5.494;2023-11-21T00:36:02;14.10;99.90
13808;DHT22;40769;51.512;5.494;2023-11-21T00:38:28;13.80;99.90
13808;DHT22;40769;51.512;5.494;2023-11-21T00:40:53;13.70;99.90
13808;DHT22;40769;51.512;5.494;2023-11-21T00:43:24;13.80;99.90
13808;DHT22;40769;51.512;5.494;2023-11-21T00:45:50;13.70;99.90
13808;DHT22;40769;51.512;5.494;2023-11-21T00:48:16;13.60;99.90
13808;DHT22;40769;51.512;5.494;2023-11-21T00:50:43;13.70;99.90
13808;DHT22;40769;51.512;5.494;2023-11-21T00:53:09;13.60;99.90
13808;DHT22;40769;51.512;5.494;2023-11-21T00:55:34;13.50;99.90
13808;DHT22;40769;51.512;5.494;2023-11-21T00:58:00;13.40;99.90
13808;DHT22;40769;51.512;5.494;2023-11-21T01:00:28;13.30;99.90
13808;DHT22;40769;51.512;5.494;2023-11-21T01:02:53;13.30;99.90
13808;DHT22;40769;51.512;5.494;2023-11-21T01:05:19;12.00;99.90
13808;DHT22;40769;51.512;5.494;2023-11-21T01:07:45;13.20;99.90
13808;DHT22;40769;51.512;5.494;2023-11-21T01:10:11;13.10;99.90
13808;DHT22;40769;51.512;5.494;2023-11-21T01:12:37;13.00;99.90
13808;DHT22;40769;51.512;5.494;2023-11-21T01:15:04;13.00;99.90
13808;DHT22;40769;51.512;5.494;2023-11-21T01:17:32;12.90;99.90
13808;DHT22;40769;51.512;5.494;2023-11-21T01:20:00;12.90;99.90
13808;DHT22;40769;51.512;5.494;2023-11-21T01:22:25;12.90;99.90
13808;DHT22;40769;51.512;5.494;2023-11-21T01:24:53;12.90;99.90
13808;DHT22;40769;51.512;5.494;2023-11-21T01:27:18;13.00;99.90
13808;DHT22;40769;51.512;5.494;2023-11-21T01:29:44;12.80;99.90
13808;DHT22;40769;51.512;5.494;2023-11-21T01:32:10;12.80;99.90
13808;DHT22;40769;51.512;5.494;2023-11-21T01:34:36;12.80;99.90
13808;DHT22;40769;51.512;5.494;2023-11-21T01:37:01;12.80;99.90
13808;DHT22;40769;51.512;5.494;2023-11-21T01:39:28;12.70;99.90
13808;DHT22;40769;51.512;5.494;2023-11-21T01:41:53;12.70;99.90
13808;DHT22;40769;51.512;5.494;2023-11-21T01:44:19;12.70;99.90
13808;DHT22;40769;51.512;5.494;2023-11-21T01:46:45;12.60;99.90
13808;DHT22;40769;51.512;5.494;2023-11-21T01:49:13;12.60;99.90
13808;DHT22;40769;51.512;5.494;2023-11-21T01:51:42;12.60;99.90
13808;DHT22;40769;51.512;5.494;2023-11-21T01:54:09;12.60;99.90
13808;DHT22;40769;51.512;5.494;2023-11-21T01:56:37;12.60;99.90
13808;DHT22;40769;51.512;5.494;2023-11-21T01:59:03;12.60;99.90
13808;DHT22;40769;51.512;5.494;2023-11-21T02:01:29;12.70;99.90
13808;DHT22;40769;51.512;5.494;2023-11-21T02:03:54;12.60;99.90
13808;DHT22;40769;51.512;5.494;2023-11-21T02:06:21;12.60;99.90
13808;DHT22;40769;51.512;5.494;2023-11-21T02:08:47;12.70;99.90
13808;DHT22;40769;51.512;5.494;2023-11-21T02:11:13;12.80;99.90
13808;DHT22;40769;51.512;5.494;2023-11-21T02:13:39;13.00;99.90
13808;DHT22;40769;51.512;5.494;2023-11-21T02:16:09;12.80;99.90
13808;DHT22;40769;51.512;5.494;2023-11-21T02:18:36;12.80;99.90
13808;DHT22;40769;51.512;5.494;2023-11-21T02:21:04;12.70;99.90
13808;DHT22;40769;51.512;5.494;2023-11-21T02:23:30;12.70;99.90
13808;DHT22;40769;51.512;5.494;2023-11-21T02:25:55;12.70;99.90
13808;DHT22;40769;51.512;5.494;2023-11-21T02:28:21;12.60;99.90
13808;DHT22;40769;51.512;5.494;2023-11-21T02:30:54;12.60;99.90
13808;DHT22;40769;51.512;5.494;2023-11-21T02:33:22;12.60;99.90
13808;DHT22;40769;51.512;5.494;2023-11-21T02:35:47;13.10;99.90
13808;DHT22;40769;51.512;5.494;2023-11-21T02:38:13;12.70;99.90
13808;DHT22;40769;51.512;5.494;2023-11-21T02:40:39;12.70;99.90
13808;DHT22;40769;51.512;5.494;2023-11-21T02:43:05;12.70;99.90
13808;DHT22;40769;51.512;5.494;2023-11-21T02:45:31;12.80;99.90
13808;DHT22;40769;51.512;5.494;2023-11-21T02:47:57;13.30;99.90
13808;DHT22;40769;51.512;5.494;2023-11-21T02:50:23;12.80;99.90
13808;DHT22;40769;51.512;5.494;2023-11-21T02:52:49;12.90;99.90
13808;DHT22;40769;51.512;5.494;2023-11-21T02:55:15;12.90;99.90
13808;DHT22;40769;51.512;5.494;2023-11-21T02:57:40;12.90;99.90
13808;DHT22;40769;51.512;5.494;2023-11-21T03:00:07;13.10;99.90
13808;DHT22;40769;51.512;5.494;2023-11-21T03:02:33;13.10;99.90
13808;DHT22;40769;51.512;5.494;2023-11-21T03:05:02;13.20;99.90
13808;DHT22;40769;51.512;5.494;2023-11-21T03:07:27;13.20;99.90
13808;DHT22;40769;51.512;5.494;2023-11-21T03:09:53;13.10;99.90
13808;DHT22;40769;51.512;5.494;2023-11-21T03:12:19;13.10;99.90
13808;DHT22;40769;51.512;5.494;2023-11-21T03:14:45;13.00;99.90
13808;DHT22;40769;51.512;5.494;2023-11-21T03:17:10;13.00;99.90
13808;DHT22;40769;51.512;5.494;2023-11-21T03:19:37;13.00;99.90
13808;DHT22;40769;51.512;5.494;2023-11-21T03:22:03;12.90;99.90
13808;DHT22;40769;51.512;5.494;2023-11-21T03:24:29;12.90;99.90
13808;DHT22;40769;51.512;5.494;2023-11-21T03:26:55;12.90;99.90
13808;DHT22;40769;51.512;5.494;2023-11-21T03:29:21;12.90;99.90
13808;DHT22;40769;51.512;5.494;2023-11-21T03:31:47;13.00;99.90
13808;DHT22;40769;51.512;5.494;2023-11-21T03:34:22;13.20;99.90
13808;DHT22;40769;51.512;5.494;2023-11-21T03:36:48;13.10;99.90
13808;DHT22;40769;51.512;5.494;2023-11-21T03:39:13;13.10;99.90
13808;DHT22;40769;51.512;5.494;2023-11-21T03:41:39;13.00;99.90
13808;DHT22;40769;51.512;5.494;2023-11-21T03:44:05;13.10;99.90
13808;DHT22;40769;51.512;5.494;2023-11-21T03:46:30;13.00;99.90
13808;DHT22;40769;51.512;5.494;2023-11-21T03:48:56;13.00;99.90
13808;DHT22;40769;51.512;5.494;2023-11-21T03:51:21;13.00;99.90
13808;DHT22;40769;51.512;5.494;2023-11-21T03:53:47;12.90;99.90
13808;DHT22;40769;51.512;5.494;2023-11-21T03:56:14;12.90;99.90
13808;DHT22;40769;51.512;5.494;2023-11-21T03:58:40;14.00;99.90
13808;DHT22;40769;51.512;5.494;2023-11-21T04:01:05;12.80;99.90
13808;DHT22;40769;51.512;5.494;2023-11-21T04:03:31;12.80;99.90
13808;DHT22;40769;51.512;5.494;2023-11-21T04:05:57;12.80;99.90
13808;DHT22;40769;51.512;5.494;2023-11-21T04:08:22;12.70;99.90
13808;DHT22;40769;51.512;5.494;2023-11-21T04:10:48;12.70;99.90
13808;DHT22;40769;51.512;5.494;2023-11-21T04:13:14;12.60;99.90
13808;DHT22;40769;51.512;5.494;2023-11-21T04:15:39;12.60;99.90
13808;DHT22;40769;51.512;5.494;2023-11-21T04:18:05;12.60;99.90
13808;DHT22;40769;51.512;5.494;2023-11-21T04:20:31;12.50;99.90
13808;DHT22;40769;51.512;5.494;2023-11-21T04:22:57;12.50;99.90
13808;DHT22;40769;51.512;5.494;2023-11-21T04:25:23;12.50;99.90
13808;DHT22;40769;51.512;5.494;2023-11-21T04:27:49;12.50;99.90
13808;DHT22;40769;51.512;5.494;2023-11-21T04:30:17;11.50;99.90
13808;DHT22;40769;51.512;5.494;2023-11-21T04:32:42;12.50;99.90
13808;DHT22;40769;51.512;5.494;2023-11-21T04:35:08;12.70;99.90
13808;DHT22;40769;51.512;5.494;2023-11-21T04:37:34;12.60;99.90
13808;DHT22;40769;51.512;5.494;2023-11-21T04:40:00;12.60;99.90
13808;DHT22;40769;51.512;5.494;2023-11-21T04:42:25;12.60;99.90
13808;DHT22;40769;51.512;5.494;2023-11-21T04:44:51;12.60;99.90
13808;DHT22;40769;51.512;5.494;2023-11-21T04:47:18;12.70;99.90
13808;DHT22;40769;51.512;5.494;2023-11-21T04:49:46;12.70;99.90
13808;DHT22;40769;51.512;5.494;2023-11-21T04:52:14;12.70;99.90
13808;DHT22;40769;51.512;5.494;2023-11-21T04:54:40;12.80;99.90
13808;DHT22;40769;51.512;5.494;2023-11-21T04:57:05;12.80;99.90
13808;DHT22;40769;51.512;5.494;2023-11-21T04:59:33;12.90;99.90
13808;DHT22;40769;51.512;5.494;2023-11-21T05:01:58;13.10;99.90
13808;DHT22;40769;51.512;5.494;2023-11-21T05:04:25;13.20;99.90
13808;DHT22;40769;51.512;5.494;2023-11-21T05:06:51;13.20;99.90
13808;DHT22;40769;51.512;5.494;2023-11-21T05:09:16;13.40;99.90
13808;DHT22;40769;51.512;5.494;2023-11-21T05:11:43;13.60;99.90
13808;DHT22;40769;51.512;5.494;2023-11-21T05:14:08;13.70;99.90
13808;DHT22;40769;51.512;5.494;2023-11-21T05:16:37;13.80;99.90
13808;DHT22;40769;51.512;5.494;2023-11-21T05:19:03;13.90;99.90
13808;DHT22;40769;51.512;5.494;2023-11-21T05:21:32;13.80;99.90
13808;DHT22;40769;51.512;5.494;2023-11-21T05:23:58;14.10;99.90
13808;DHT22;40769;51.512;5.494;2023-11-21T05:26:24;14.00;99.90
13808;DHT22;40769;51.512;5.494;2023-11-21T05:28:49;14.30;99.90
13808;DHT22;40769;51.512;5.494;2023-11-21T05:31:15;14.10;99.90
13808;DHT22;40769;51.512;5.494;2023-11-21T05:33:41;14.10;99.90
13808;DHT22;40769;51.512;5.494;2023-11-21T05:36:07;14.10;99.90
13808;DHT22;40769;51.512;5.494;2023-11-21T05:38:33;14.10;99.90
13808;DHT22;40769;51.512;5.494;2023-11-21T05:41:01;14.10;99.90
13808;DHT22;40769;51.512;5.494;2023-11-21T05:43:26;14.10;99.90
13808;DHT22;40769;51.512;5.494;2023-11-21T05:45:53;14.00;99.90
13808;DHT22;40769;51.512;5.494;2023-11-21T05:48:19;13.90;99.90
13808;DHT22;40769;51.512;5.494;2023-11-21T05:50:46;13.90;99.90
13808;DHT22;40769;51.512;5.494;2023-11-21T05:53:12;14.10;99.90
13808;DHT22;40769;51.512;5.494;2023-11-21T05:55:41;13.80;99.90
13808;DHT22;40769;51.512;5.494;2023-11-21T05:58:06;13.70;99.90
13808;DHT22;40769;51.512;5.494;2023-11-21T06:00:33;13.70;99.90
13808;DHT22;40769;51.512;5.494;2023-11-21T06:02:58;13.60;99.90
13808;DHT22;40769;51.512;5.494;2023-11-21T06:05:25;13.40;99.90
13808;DHT22;40769;51.512;5.494;2023-11-21T06:07:55;13.50;99.90
13808;DHT22;40769;51.512;5.494;2023-11-21T06:10:24;13.40;99.90
13808;DHT22;40769;51.512;5.494;2023-11-21T06:12:49;13.50;99.90
13808;DHT22;40769;51.512;5.494;2023-11-21T06:15:15;13.40;99.90
13808;DHT22;40769;51.512;5.494;2023-11-21T06:17:42;13.40;99.90
13808;DHT22;40769;51.512;5.494;2023-11-21T06:20:10;13.50;99.90
13808;DHT22;40769;51.512;5.494;2023-11-21T06:22:41;13.60;99.90
13808;DHT22;40769;51.512;5.494;2023-11-21T06:25:08;13.60;99.90
13808;DHT22;40769;51.512;5.494;2023-11-21T06:27:37;13.70;99.90
13808;DHT22;40769;51.512;5.494;2023-11-21T06:30:03;13.70;99.90
13808;DHT22;40769;51.512;5.494;2023-11-21T06:32:29;13.70;99.90
13808;DHT22;40769;51.512;5.494;2023-11-21T06:34:58;13.70;99.90
13808;DHT22;40769;51.512;5.494;2023-11-21T06:37:28;13.60;99.90
13808;DHT22;40769;51.512;5.494;2023-11-21T06:39:54;13.60;99.90
13808;DHT22;40769;51.512;5.494;2023-11-21T06:42:20;13.60;99.90
13808;DHT22;40769;51.512;5.494;2023-11-21T06:44:47;13.70;99.90
13808;DHT22;40769;51.512;5.494;2023-11-21T06:47:13;13.60;99.90
13808;DHT22;40769;51.512;5.494;2023-11-21T06:49:39;13.50;99.90
13808;DHT22;40769;51.512;5.494;2023-11-21T06:52:05;13.50;99.90
13808;DHT22;40769;51.512;5.494;2023-11-21T06:54:37;13.50;99.90
13808;DHT22;40769;51.512;5.494;2023-11-21T06:57:02;13.50;99.90
13808;DHT22;40769;51.512;5.494;2023-11-21T06:59:34;13.50;99.90
13808;DHT22;40769;51.512;5.494;2023-11-21T07:02:00;13.50;99.90
13808;DHT22;40769;51.512;5.494;2023-11-21T07:04:25;13.80;99.90
13808;DHT22;40769;51.512;5.494;2023-11-21T07:06:53;13.60;99.90
13808;DHT22;40769;51.512;5.494;2023-11-21T07:09:18;13.70;99.90
13808;DHT22;40769;51.512;5.494;2023-11-21T07:11:47;13.70;99.90
13808;DHT22;40769;51.512;5.494;2023-11-21T07:14:14;13.80;99.90
13808;DHT22;40769;51.512;5.494;2023-11-21T07:16:39;13.80;99.90
13808;DHT22;40769;51.512;5.494;2023-11-21T07:19:06;13.80;99.90
13808;DHT22;40769;51.512;5.494;2023-11-21T07:21:33;13.80;99.90
13808;DHT22;40769;51.512;5.494;2023-11-21T07:24:00;14.00;99.90
13808;DHT22;40769;51.512;5.494;2023-11-21T07:26:26;13.90;99.90
13808;DHT22;40769;51.512;5.494;2023-11-21T07:28:53;14.00;99.90
13808;DHT22;40769;51.512;5.494;2023-11-21T07:31:18;13.90;99.90
13808;DHT22;40769;51.512;5.494;2023-11-21T07:33:45;13.80;99.90
13808;DHT22;40769;51.512;5.494;2023-11-21T07:36:13;13.90;99.90
13808;DHT22;40769;51.512;5.494;2023-11-21T07:38:39;13.90;99.90
13808;DHT22;40769;51.512;5.494;2023-11-21T07:41:05;13.90;99.90
13808;DHT22;40769;51.512;5.494;2023-11-21T07:43:34;13.90;99.90
13808;DHT22;40769;51.512;5.494;2023-11-21T07:46:03;13.90;99.90
13808;DHT22;40769;51.512;5.494;2023-11-21T07:48:30;14.00;99.90
13808;DHT22;40769;51.512;5.494;2023-11-21T07:50:57;13.90;99.90
13808;DHT22;40769;51.512;5.494;2023-11-21T07:53:26;14.20;99.90
13808;DHT22;40769;51.512;5.494;2023-11-21T07:55:58;14.00;99.90
13808;DHT22;40769;51.512;5.494;2023-11-21T07:58:27;14.00;99.90
13808;DHT22;40769;51.512;5.494;2023-11-21T08:00:53;14.10;99.90
13808;DHT22;40769;51.512;5.494;2023-11-21T08:03:19;14.20;99.90
13808;DHT22;40769;51.512;5.494;2023-11-21T08:05:45;14.30;99.90
13808;DHT22;40769;51.512;5.494;2023-11-21T08:08:10;14.40;99.90
13808;DHT22;40769;51.512;5.494;2023-11-21T08:10:36;14.50;99.90
13808;DHT22;40769;51.512;5.494;2023-11-21T08:13:03;14.60;99.90
13808;DHT22;40769;51.512;5.494;2023-11-21T08:15:29;14.60;99.90
13808;DHT22;40769;51.512;5.494;2023-11-21T08:17:57;14.70;99.90
13808;DHT22;40769;51.512;5.494;2023-11-21T08:20:22;14.70;99.90
13808;DHT22;40769;51.512;5.494;2023-11-21T08:22:49;14.70;99.90
13808;DHT22;40769;51.512;5.494;2023-11-21T08:25:15;14.70;99.90
13808;DHT22;40769;51.512;5.494;2023-11-21T08:27:41;14.60;99.90
13808;DHT22;40769;51.512;5.494;2023-11-21T08:30:06;14.60;99.90
13808;DHT22;40769;51.512;5.494;2023-11-21T08:32:32;14.50;99.90
13808;DHT22;40769;51.512;5.494;2023-11-21T08:34:59;14.60;99.90
13808;DHT22;40769;51.512;5.494;2023-11-21T08:37:25;14.60;99.90
13808;DHT22;40769;51.512;5.494;2023-11-21T08:39:52;14.50;99.90
13808;DHT22;40769;51.512;5.494;2023-11-21T08:42:19;14.50;99.90
13808;DHT22;40769;51.512;5.494;2023-11-21T08:44:45;14.00;99.90
13808;DHT22;40769;51.512;5.494;2023-11-21T08:47:11;14.50;99.90
13808;DHT22;40769;51.512;5.494;2023-11-21T08:49:37;14.50;99.90
13808;DHT22;40769;51.512;5.494;2023-11-21T08:52:03;14.40;99.90
13808;DHT22;40769;51.512;5.494;2023-11-21T08:54:31;14.40;99.90
13808;DHT22;40769;51.512;5.494;2023-11-21T08:56:56;14.50;99.90
13808;DHT22;40769;51.512;5.494;2023-11-21T08:59:26;14.30;99.90
13808;DHT22;40769;51.512;5.494;2023-11-21T09:01:52;14.70;99.90
13808;DHT22;40769;51.512;5.494;2023-11-21T09:04:18;14.30;99.90
13808;DHT22;40769;51.512;5.494;2023-11-21T09:06:43;14.30;99.90
13808;DHT22;40769;51.512;5.494;2023-11-21T09:09:09;14.40;99.90
13808;DHT22;40769;51.512;5.494;2023-11-21T09:11:36;14.60;99.90
13808;DHT22;40769;51.512;5.494;2023-11-21T09:14:02;14.50;99.90
13808;DHT22;40769;51.512;5.494;2023-11-21T09:16:31;14.60;99.90
13808;DHT22;40769;51.512;5.494;2023-11-21T09:18:57;14.70;99.90
13808;DHT22;40769;51.512;5.494;2023-11-21T09:21:24;14.90;99.90
13808;DHT22;40769;51.512;5.494;2023-11-21T09:23:51;14.90;99.90
13808;DHT22;40769;51.512;5.494;2023-11-21T09:26:17;15.00;99.90
13808;DHT22;40769;51.512;5.494;2023-11-21T09:28:44;15.10;99.90
13808;DHT22;40769;51.512;5.494;2023-11-21T09:31:13;15.20;99.90
13808;DHT22;40769;51.512;5.494;2023-11-21T09:33:41;15.20;99.90
13808;DHT22;40769;51.512;5.494;2023-11-21T09:36:12;15.20;99.90
13808;DHT22;40769;51.512;5.494;2023-11-21T09:38:39;15.30;99.90
13808;DHT22;40769;51.512;5.494;2023-11-21T09:41:06;15.30;99.90
13808;DHT22;40769;51.512;5.494;2023-11-21T09:43:35;15.30;99.90
13808;DHT22;40769;51.512;5.494;2023-11-21T09:46:02;15.40;99.90
13808;DHT22;40769;51.512;5.494;2023-11-21T09:48:32;16.10;99.90
13808;DHT22;40769;51.512;5.494;2023-11-21T09:50:59;15.50;99.90
13808;DHT22;40769;51.512;5.494;2023-11-21T09:53:27;15.50;99.90
13808;DHT22;40769;51.512;5.494;2023-11-21T09:55:55;15.50;99.90
13808;DHT22;40769;51.512;5.494;2023-11-21T09:58:22;15.50;99.90
13808;DHT22;40769;51.512;5.494;2023-11-21T10:00:53;15.60;99.90
13808;DHT22;40769;51.512;5.494;2023-11-21T10:03:19;15.60;99.90
13808;DHT22;40769;51.512;5.494;2023-11-21T10:05:45;15.60;99.90
13808;DHT22;40769;51.512;5.494;2023-11-21T10:08:12;15.70;99.90
13808;DHT22;40769;51.512;5.494;2023-11-21T10:10:45;15.70;99.90
13808;DHT22;40769;51.512;5.494;2023-11-21T10:13:14;15.70;99.90
13808;DHT22;40769;51.512;5.494;2023-11-21T10:15:43;15.70;99.90
13808;DHT22;40769;51.512;5.494;2023-11-21T10:18:14;15.80;99.90
13808;DHT22;40769;51.512;5.494;2023-11-21T10:20:41;15.90;99.90
13808;DHT22;40769;51.512;5.494;2023-11-21T10:23:07;16.00;99.90
13808;DHT22;40769;51.512;5.494;2023-11-21T10:25:36;16.10;99.90
13808;DHT22;40769;51.512;5.494;2023-11-21T10:28:03;16.30;99.90
13808;DHT22;40769;51.512;5.494;2023-11-21T10:30:36;16.20;99.90
13808;DHT22;40769;51.512;5.494;2023-11-21T10:33:06;16.20;99.90
13808;DHT22;40769;51.512;5.494;2023-11-21T10:35:45;16.30;99.90
13808;DHT22;40769;51.512;5.494;2023-11-21T10:38:17;16.40;99.90
13808;DHT22;40769;51.512;5.494;2023-11-21T10:40:43;16.50;99.90
13808;DHT22;40769;51.512;5.494;2023-11-21T10:43:10;16.60;99.90
13808;DHT22;40769;51.512;5.494;2023-11-21T10:45:39;16.60;99.90
13808;DHT22;40769;51.512;5.494;2023-11-21T10:48:15;16.80;99.90
13808;DHT22;40769;51.512;5.494;2023-11-21T10:50:42;16.90;99.90
13808;DHT22;40769;51.512;5.494;2023-11-21T10:53:08;17.00;99.90
13808;DHT22;40769;51.512;5.494;2023-11-21T10:55:34;17.10;99.90
13808;DHT22;40769;51.512;5.494;2023-11-21T10:58:02;17.20;99.90
13808;DHT22;40769;51.512;5.494;2023-11-21T11:00:29;17.20;99.90
13808;DHT22;40769;51.512;5.494;2023-11-21T11:02:55;17.20;99.90
13808;DHT22;40769;51.512;5.494;2023-11-21T11:05:23;17.30;99.90
13808;DHT22;40769;51.512;5.494;2023-11-21T11:07:58;17.40;99.90
13808;DHT22;40769;51.512;5.494;2023-11-21T11:10:27;17.50;99.90
13808;DHT22;40769;51.512;5.494;2023-11-21T11:12:55;18.20;99.90
13808;DHT22;40769;51.512;5.494;2023-11-21T11:15:28;17.60;99.90
13808;DHT22;40769;51.512;5.494;2023-11-21T11:17:54;17.60;99.90
13808;DHT22;40769;51.512;5.494;2023-11-21T11:20:25;17.70;99.90
13808;DHT22;40769;51.512;5.494;2023-11-21T11:26:20;17.80;99.90
13808;DHT22;40769;51.512;5.494;2023-11-21T11:37:04;17.70;99.90
13808;DHT22;40769;51.512;5.494;2023-11-21T11:39:36;17.60;99.90
13808;DHT22;40769;51.512;5.494;2023-11-21T11:42:06;17.60;99.90
13808;DHT22;40769;51.512;5.494;2023-11-21T11:47:19;17.50;99.90
13808;DHT22;40769;51.512;5.494;2023-11-21T11:50:15;17.50;99.90
13808;DHT22;40769;51.512;5.494;2023-11-21T11:52:55;17.50;99.90
13808;DHT22;40769;51.512;5.494;2023-11-21T11:55:24;17.50;99.90
13808;DHT22;40769;51.512;5.494;2023-11-21T11:57:54;17.60;99.90
13808;DHT22;40769;51.512;5.494;2023-11-21T12:02:56;17.70;99.90
13808;DHT22;40769;51.512;5.494;2023-11-21T12:05:28;17.60;99.90
13808;DHT22;40769;51.512;5.494;2023-11-21T12:07:55;17.80;99.90
13808;DHT22;40769;51.512;5.494;2023-11-21T12:10:27;17.70;99.90
13808;DHT22;40769;51.512;5.494;2023-11-21T12:13:01;17.70;99.90
13808;DHT22;40769;51.512;5.494;2023-11-21T12:15:27;17.70;99.90
13808;DHT22;40769;51.512;5.494;2023-11-21T12:17:57;17.60;99.90
13808;DHT22;40769;51.512;5.494;2023-11-21T12:20:26;17.50;99.90
13808;DHT22;40769;51.512;5.494;2023-11-21T12:22:57;17.40;99.90
13808;DHT22;40769;51.512;5.494;2023-11-21T12:25:27;17.30;99.90
13808;DHT22;40769;51.512;5.494;2023-11-21T12:28:00;17.30;99.90
13808;DHT22;40769;51.512;5.494;2023-11-21T12:30:28;17.30;99.90
13808;DHT22;40769;51.512;5.494;2023-11-21T12:32:56;17.30;99.90
13808;DHT22;40769;51.512;5.494;2023-11-21T12:35:25;17.40;99.90
13808;DHT22;40769;51.512;5.494;2023-11-21T12:37:52;17.30;99.90
13808;DHT22;40769;51.512;5.494;2023-11-21T12:40:19;17.30;99.90
13808;DHT22;40769;51.512;5.494;2023-11-21T12:42:46;17.30;99.90
13808;DHT22;40769;51.512;5.494;2023-11-21T12:47:50;17.20;99.90
13808;DHT22;40769;51.512;5.494;2023-11-21T12:50:19;17.20;99.90
13808;DHT22;40769;51.512;5.494;2023-11-21T12:52:50;17.10;99.90
13808;DHT22;40769;51.512;5.494;2023-11-21T12:55:23;16.90;99.90
13808;DHT22;40769;51.512;5.494;2023-11-21T12:57:52;16.80;99.90
13808;DHT22;40769;51.512;5.494;2023-11-21T13:01:06;16.60;99.90
13808;DHT22;40769;51.512;5.494;2023-11-21T13:03:08;16.40;99.90
13808;DHT22;40769;51.512;5.494;2023-11-21T13:05:39;16.30;99.90
13808;DHT22;40769;51.512;5.494;2023-11-21T13:08:06;16.20;99.90
13808;DHT22;40769;51.512;5.494;2023-11-21T13:10:39;16.30;99.90
13808;DHT22;40769;51.512;5.494;2023-11-21T13:13:06;16.10;99.90
13808;DHT22;40769;51.512;5.494;2023-11-21T13:15:55;16.10;99.90
13808;DHT22;40769;51.512;5.494;2023-11-21T13:18:22;16.10;99.90
13808;DHT22;40769;51.512;5.494;2023-11-21T13:20:48;16.10;99.90
13808;DHT22;40769;51.512;5.494;2023-11-21T13:23:15;16.00;99.90
13808;DHT22;40769;51.512;5.494;2023-11-21T13:25:43;16.00;99.90
13808;DHT22;40769;51.512;5.494;2023-11-21T13:28:11;16.00;99.90
13808;DHT22;40769;51.512;5.494;2023-11-21T13:30:38;16.00;99.90
13808;DHT22;40769;51.512;5.494;2023-11-21T13:33:06;16.00;99.90
13808;DHT22;40769;51.512;5.494;2023-11-21T13:35:37;16.00;99.90
13808;DHT22;40769;51.512;5.494;2023-11-21T13:38:10;16.10;99.90
13808;DHT22;40769;51.512;5.494;2023-11-21T13:40:37;16.00;99.90
13808;DHT22;40769;51.512;5.494;2023-11-21T13:43:13;16.00;99.90
13808;DHT22;40769;51.512;5.494;2023-11-21T13:45:40;16.10;99.90
13808;DHT22;40769;51.512;5.494;2023-11-21T13:48:06;16.00;99.90
13808;DHT22;40769;51.512;5.494;2023-11-21T13:50:38;16.10;99.90
13808;DHT22;40769;51.512;5.494;2023-11-21T13:53:05;16.20;99.90
13808;DHT22;40769;51.512;5.494;2023-11-21T13:55:44;16.10;99.90
13808;DHT22;40769;51.512;5.494;2023-11-21T13:58:11;16.10;99.90
13808;DHT22;40769;51.512;5.494;2023-11-21T14:00:42;16.20;99.90
13808;DHT22;40769;51.512;5.494;2023-11-21T14:03:14;16.20;99.90
13808;DHT22;40769;51.512;5.494;2023-11-21T14:05:50;16.10;99.90
13808;DHT22;40769;51.512;5.494;2023-11-21T14:08:21;16.10;99.90
13808;DHT22;40769;51.512;5.494;2023-11-21T14:10:49;16.10;99.90
13808;DHT22;40769;51.512;5.494;2023-11-21T14:13:18;16.10;99.90
13808;DHT22;40769;51.512;5.494;2023-11-21T14:15:48;16.10;99.90
13808;DHT22;40769;51.512;5.494;2023-11-21T14:18:16;16.10;99.90
13808;DHT22;40769;51.512;5.494;2023-11-21T14:20:43;16.10;99.90
13808;DHT22;40769;51.512;5.494;2023-11-21T14:23:10;16.10;99.90
13808;DHT22;40769;51.512;5.494;2023-11-21T14:25:36;16.10;99.90
13808;DHT22;40769;51.512;5.494;2023-11-21T14:28:05;16.10;99.90
13808;DHT22;40769;51.512;5.494;2023-11-21T14:30:32;16.20;99.90
13808;DHT22;40769;51.512;5.494;2023-11-21T14:33:00;16.30;99.90
13808;DHT22;40769;51.512;5.494;2023-11-21T14:35:27;16.30;99.90
13808;DHT22;40769;51.512;5.494;2023-11-21T14:37:53;16.40;99.90
13808;DHT22;40769;51.512;5.494;2023-11-21T14:40:20;16.40;99.90
13808;DHT22;40769;51.512;5.494;2023-11-21T14:42:50;16.50;99.90
13808;DHT22;40769;51.512;5.494;2023-11-21T14:45:19;16.50;99.90
13808;DHT22;40769;51.512;5.494;2023-11-21T14:47:46;16.60;99.90
13808;DHT22;40769;51.512;5.494;2023-11-21T14:50:22;16.60;99.90
13808;DHT22;40769;51.512;5.494;2023-11-21T14:53:06;16.60;99.90
13808;DHT22;40769;51.512;5.494;2023-11-21T14:55:33;16.60;99.90
13808;DHT22;40769;51.512;5.494;2023-11-21T14:58:07;16.70;99.90
13808;DHT22;40769;51.512;5.494;2023-11-21T15:00:38;16.70;99.90
13808;DHT22;40769;51.512;5.494;2023-11-21T15:03:10;16.80;99.90
13808;DHT22;40769;51.512;5.494;2023-11-21T15:05:52;16.80;99.90
13808;DHT22;40769;51.512;5.494;2023-11-21T15:08:19;16.80;99.90
13808;DHT22;40769;51.512;5.494;2023-11-21T15:10:52;16.80;99.90
13808;DHT22;40769;51.512;5.494;2023-11-21T15:13:19;16.70;99.90
13808;DHT22;40769;51.512;5.494;2023-11-21T15:15:45;16.60;99.90
13808;DHT22;40769;51.512;5.494;2023-11-21T15:18:11;16.40;99.90
13808;DHT22;40769;51.512;5.494;2023-11-21T15:20:39;16.20;99.90
13808;DHT22;40769;51.512;5.494;2023-11-21T15:23:05;15.90;99.90
13808;DHT22;40769;51.512;5.494;2023-11-21T15:25:32;15.90;99.90
13808;DHT22;40769;51.512;5.494;2023-11-21T15:27:57;15.50;99.90
13808;DHT22;40769;51.512;5.494;2023-11-21T15:30:23;15.40;99.90
13808;DHT22;40769;51.512;5.494;2023-11-21T15:32:51;15.30;99.90
13808;DHT22;40769;51.512;5.494;2023-11-21T15:35:18;15.20;99.90
13808;DHT22;40769;51.512;5.494;2023-11-21T15:37:44;15.20;99.90
13808;DHT22;40769;51.512;5.494;2023-11-21T15:40:11;15.10;99.90
13808;DHT22;40769;51.512;5.494;2023-11-21T15:42:36;15.00;99.90
13808;DHT22;40769;51.512;5.494;2023-11-21T15:45:03;15.00;99.90
13808;DHT22;40769;51.512;5.494;2023-11-21T15:47:34;15.00;99.90
13808;DHT22;40769;51.512;5.494;2023-11-21T15:50:00;15.00;99.90
13808;DHT22;40769;51.512;5.494;2023-11-21T15:52:27;15.00;99.90